sensor_id;sensor_type;location;lat;lon;timestamp;temperature;humidity
15113;DHT22;7657;50.140;7.076;2022-08-19T00:01:50;20.40;99.90
15113;DHT22;7657;50.140;7.076;2022-08-19T00:04:19;20.30;99.90
15113;DHT22;7657;50.140;7.076;2022-08-19T00:06:47;20.40;99.90
15113;DHT22;7657;50.140;7.076;2022-08-19T00:09:16;20.50;99.90
15113;DHT22;7657;50.140;7.076;2022-08-19T00:11:45;20.60;99.90
15113;DHT22;7657;50.140;7.076;2022-08-19T00:14:14;20.60;99.90
15113;DHT22;7657;50.140;7.076;2022-08-19T00:16:43;20.50;99.90
15113;DHT22;7657;50.140;7.076;2022-08-19T00:19:11;20.40;99.90
15113;DHT22;7657;50.140;7.076;2022-08-19T00:21:38;20.60;99.90
15113;DHT22;7657;50.140;7.076;2022-08-19T00:24:05;20.60;99.90
15113;DHT22;7657;50.140;7.076;2022-08-19T00:26:32;20.70;99.90
15113;DHT22;7657;50.140;7.076;2022-08-19T00:29:01;20.70;99.90
15113;DHT22;7657;50.140;7.076;2022-08-19T00:31:29;20.70;99.90
15113;DHT22;7657;50.140;7.076;2022-08-19T00:33:56;20.60;99.90
15113;DHT22;7657;50.140;7.076;2022-08-19T00:36:23;20.70;99.90
15113;DHT22;7657;50.140;7.076;2022-08-19T00:38:50;20.80;99.90
15113;DHT22;7657;50.140;7.076;2022-08-19T00:41:20;20.90;99.90
15113;DHT22;7657;50.140;7.076;2022-08-19T00:43:58;20.90;99.90
15113;DHT22;7657;50.140;7.076;2022-08-19T00:46:26;20.90;99.90
15113;DHT22;7657;50.140;7.076;2022-08-19T00:48:54;20.80;99.90
15113;DHT22;7657;50.140;7.076;2022-08-19T00:51:21;20.70;99.90
15113;DHT22;7657;50.140;7.076;2022-08-19T00:53:49;20.60;99.90
15113;DHT22;7657;50.140;7.076;2022-08-19T00:56:16;20.50;99.90
15113;DHT22;7657;50.140;7.076;2022-08-19T00:58:44;20.50;99.90
15113;DHT22;7657;50.140;7.076;2022-08-19T01:01:11;20.40;99.90
15113;DHT22;7657;50.140;7.076;2022-08-19T01:03:40;20.30;99.90
15113;DHT22;7657;50.140;7.076;2022-08-19T01:06:07;20.50;99.90
15113;DHT22;7657;50.140;7.076;2022-08-19T01:08:34;20.60;99.90
15113;DHT22;7657;50.140;7.076;2022-08-19T01:11:01;20.70;99.90
15113;DHT22;7657;50.140;7.076;2022-08-19T01:13:31;20.70;99.90
15113;DHT22;7657;50.140;7.076;2022-08-19T01:16:03;20.70;99.90
15113;DHT22;7657;50.140;7.076;2022-08-19T01:18:32;20.70;99.90
15113;DHT22;7657;50.140;7.076;2022-08-19T01:21:08;20.70;99.90
15113;DHT22;7657;50.140;7.076;2022-08-19T01:23:37;20.60;99.90
15113;DHT22;7657;50.140;7.076;2022-08-19T01:26:12;20.50;99.90
15113;DHT22;7657;50.140;7.076;2022-08-19T01:28:40;20.50;99.90
15113;DHT22;7657;50.140;7.076;2022-08-19T01:31:09;20.50;99.90
15113;DHT22;7657;50.140;7.076;2022-08-19T01:33:38;20.50;99.90
15113;DHT22;7657;50.140;7.076;2022-08-19T01:36:07;20.50;99.90
15113;DHT22;7657;50.140;7.076;2022-08-19T01:38:39;20.50;99.90
15113;DHT22;7657;50.140;7.076;2022-08-19T01:41:07;20.60;99.90
15113;DHT22;7657;50.140;7.076;2022-08-19T01:43:34;20.70;99.90
15113;DHT22;7657;50.140;7.076;2022-08-19T01:46:02;20.70;99.90
15113;DHT22;7657;50.140;7.076;2022-08-19T01:48:34;20.80;99.90
15113;DHT22;7657;50.140;7.076;2022-08-19T01:51:01;20.80;99.90
15113;DHT22;7657;50.140;7.076;2022-08-19T01:53:28;20.90;99.90
15113;DHT22;7657;50.140;7.076;2022-08-19T01:55:57;20.80;99.90
15113;DHT22;7657;50.140;7.076;2022-08-19T01:58:27;20.80;99.90
15113;DHT22;7657;50.140;7.076;2022-08-19T02:00:56;20.80;99.90
15113;DHT22;7657;50.140;7.076;2022-08-19T02:03:23;20.90;99.90
15113;DHT22;7657;50.140;7.076;2022-08-19T02:05:54;20.90;99.90
15113;DHT22;7657;50.140;7.076;2022-08-19T02:08:22;20.80;99.90
15113;DHT22;7657;50.140;7.076;2022-08-19T02:10:49;20.70;99.90
15113;DHT22;7657;50.140;7.076;2022-08-19T02:13:18;20.70;99.90
15113;DHT22;7657;50.140;7.076;2022-08-19T02:15:45;20.80;99.90
15113;DHT22;7657;50.140;7.076;2022-08-19T02:18:13;20.80;99.90
15113;DHT22;7657;50.140;7.076;2022-08-19T02:20:41;20.90;99.90
15113;DHT22;7657;50.140;7.076;2022-08-19T02:23:09;20.80;99.90
15113;DHT22;7657;50.140;7.076;2022-08-19T02:25:37;20.70;99.90
15113;DHT22;7657;50.140;7.076;2022-08-19T02:28:04;20.60;99.90
15113;DHT22;7657;50.140;7.076;2022-08-19T02:30:33;20.60;99.90
15113;DHT22;7657;50.140;7.076;2022-08-19T02:33:00;20.50;99.90
15113;DHT22;7657;50.140;7.076;2022-08-19T02:35:27;20.50;99.90
15113;DHT22;7657;50.140;7.076;2022-08-19T02:37:54;20.40;99.90
15113;DHT22;7657;50.140;7.076;2022-08-19T02:40:38;20.30;99.90
15113;DHT22;7657;50.140;7.076;2022-08-19T02:43:07;20.20;99.90
15113;DHT22;7657;50.140;7.076;2022-08-19T02:45:37;20.30;99.90
15113;DHT22;7657;50.140;7.076;2022-08-19T02:48:05;20.40;99.90
15113;DHT22;7657;50.140;7.076;2022-08-19T02:50:33;20.40;99.90
15113;DHT22;7657;50.140;7.076;2022-08-19T02:53:00;20.30;99.90
15113;DHT22;7657;50.140;7.076;2022-08-19T02:55:27;20.30;99.90
15113;DHT22;7657;50.140;7.076;2022-08-19T02:57:54;20.30;99.90
15113;DHT22;7657;50.140;7.076;2022-08-19T03:00:22;20.40;99.90
15113;DHT22;7657;50.140;7.076;2022-08-19T03:02:51;20.40;99.90
15113;DHT22;7657;50.140;7.076;2022-08-19T03:05:18;20.30;99.90
15113;DHT22;7657;50.140;7.076;2022-08-19T03:07:45;20.30;99.90
15113;DHT22;7657;50.140;7.076;2022-08-19T03:10:12;20.20;99.90
15113;DHT22;7657;50.140;7.076;2022-08-19T03:12:39;20.00;99.90
15113;DHT22;7657;50.140;7.076;2022-08-19T03:15:07;20.00;99.90
15113;DHT22;7657;50.140;7.076;2022-08-19T03:17:35;19.90;99.90
15113;DHT22;7657;50.140;7.076;2022-08-19T03:20:04;19.90;99.90
15113;DHT22;7657;50.140;7.076;2022-08-19T03:22:31;19.80;99.90
15113;DHT22;7657;50.140;7.076;2022-08-19T03:24:58;19.90;99.90
15113;DHT22;7657;50.140;7.076;2022-08-19T03:27:25;19.90;99.90
15113;DHT22;7657;50.140;7.076;2022-08-19T03:29:52;20.10;99.90
15113;DHT22;7657;50.140;7.076;2022-08-19T03:32:19;20.10;99.90
15113;DHT22;7657;50.140;7.076;2022-08-19T03:34:47;20.10;99.90
15113;DHT22;7657;50.140;7.076;2022-08-19T03:37:16;20.20;99.90
15113;DHT22;7657;50.140;7.076;2022-08-19T03:39:43;20.20;99.90
15113;DHT22;7657;50.140;7.076;2022-08-19T03:42:10;20.30;99.90
15113;DHT22;7657;50.140;7.076;2022-08-19T03:44:37;20.30;99.90
15113;DHT22;7657;50.140;7.076;2022-08-19T03:47:05;20.30;99.90
15113;DHT22;7657;50.140;7.076;2022-08-19T03:49:32;20.20;99.90
15113;DHT22;7657;50.140;7.076;2022-08-19T03:52:01;20.20;99.90
15113;DHT22;7657;50.140;7.076;2022-08-19T03:54:29;20.20;99.90
15113;DHT22;7657;50.140;7.076;2022-08-19T03:56:57;20.10;99.90
15113;DHT22;7657;50.140;7.076;2022-08-19T03:59:26;20.00;99.90
15113;DHT22;7657;50.140;7.076;2022-08-19T04:01:55;20.10;99.90
15113;DHT22;7657;50.140;7.076;2022-08-19T04:04:22;20.00;99.90
15113;DHT22;7657;50.140;7.076;2022-08-19T04:06:50;20.00;99.90
15113;DHT22;7657;50.140;7.076;2022-08-19T04:09:18;20.00;99.90
15113;DHT22;7657;50.140;7.076;2022-08-19T04:11:49;19.90;99.90
15113;DHT22;7657;50.140;7.076;2022-08-19T04:14:21;20.00;99.90
15113;DHT22;7657;50.140;7.076;2022-08-19T04:16:49;19.90;99.90
15113;DHT22;7657;50.140;7.076;2022-08-19T04:19:18;19.80;99.90
15113;DHT22;7657;50.140;7.076;2022-08-19T04:21:48;19.60;99.90
15113;DHT22;7657;50.140;7.076;2022-08-19T04:24:15;19.50;99.90
15113;DHT22;7657;50.140;7.076;2022-08-19T04:26:43;19.60;99.90
15113;DHT22;7657;50.140;7.076;2022-08-19T04:29:14;19.60;99.90
15113;DHT22;7657;50.140;7.076;2022-08-19T04:31:43;19.50;99.90
15113;DHT22;7657;50.140;7.076;2022-08-19T04:34:13;19.50;99.90
15113;DHT22;7657;50.140;7.076;2022-08-19T04:36:42;19.40;99.90
15113;DHT22;7657;50.140;7.076;2022-08-19T04:39:12;19.30;99.90
15113;DHT22;7657;50.140;7.076;2022-08-19T04:41:39;19.40;99.90
15113;DHT22;7657;50.140;7.076;2022-08-19T04:44:25;19.60;99.90
15113;DHT22;7657;50.140;7.076;2022-08-19T04:46:56;19.60;99.90
15113;DHT22;7657;50.140;7.076;2022-08-19T04:49:24;19.70;99.90
15113;DHT22;7657;50.140;7.076;2022-08-19T04:51:52;19.70;99.90
15113;DHT22;7657;50.140;7.076;2022-08-19T04:54:22;19.60;99.90
15113;DHT22;7657;50.140;7.076;2022-08-19T04:56:51;19.30;99.90
15113;DHT22;7657;50.140;7.076;2022-08-19T04:59:19;19.30;99.90
15113;DHT22;7657;50.140;7.076;2022-08-19T05:01:48;19.40;99.90
15113;DHT22;7657;50.140;7.076;2022-08-19T05:04:16;19.30;99.90
15113;DHT22;7657;50.140;7.076;2022-08-19T05:06:44;19.30;99.90
15113;DHT22;7657;50.140;7.076;2022-08-19T05:09:12;19.30;99.90
15113;DHT22;7657;50.140;7.076;2022-08-19T05:11:39;19.40;99.90
15113;DHT22;7657;50.140;7.076;2022-08-19T05:14:07;19.40;99.90
15113;DHT22;7657;50.140;7.076;2022-08-19T05:16:35;19.40;99.90
15113;DHT22;7657;50.140;7.076;2022-08-19T05:19:03;19.40;99.90
15113;DHT22;7657;50.140;7.076;2022-08-19T05:21:47;19.50;99.90
15113;DHT22;7657;50.140;7.076;2022-08-19T05:24:32;19.60;99.90
15113;DHT22;7657;50.140;7.076;2022-08-19T05:27:00;19.70;99.90
15113;DHT22;7657;50.140;7.076;2022-08-19T05:29:29;19.70;99.90
15113;DHT22;7657;50.140;7.076;2022-08-19T05:31:58;19.80;99.90
15113;DHT22;7657;50.140;7.076;2022-08-19T05:34:26;19.80;99.90
15113;DHT22;7657;50.140;7.076;2022-08-19T05:36:55;19.90;99.90
15113;DHT22;7657;50.140;7.076;2022-08-19T05:39:27;19.90;99.90
15113;DHT22;7657;50.140;7.076;2022-08-19T05:41:58;19.80;99.90
15113;DHT22;7657;50.140;7.076;2022-08-19T05:44:26;19.80;99.90
15113;DHT22;7657;50.140;7.076;2022-08-19T05:46:53;19.80;99.90
15113;DHT22;7657;50.140;7.076;2022-08-19T05:49:22;19.80;99.90
15113;DHT22;7657;50.140;7.076;2022-08-19T05:51:51;19.80;99.90
15113;DHT22;7657;50.140;7.076;2022-08-19T05:54:19;19.80;99.90
15113;DHT22;7657;50.140;7.076;2022-08-19T05:56:46;19.80;99.90
15113;DHT22;7657;50.140;7.076;2022-08-19T05:59:15;19.90;99.90
15113;DHT22;7657;50.140;7.076;2022-08-19T06:01:44;20.00;99.90
15113;DHT22;7657;50.140;7.076;2022-08-19T06:04:12;20.00;99.90
15113;DHT22;7657;50.140;7.076;2022-08-19T06:06:40;20.00;99.90
15113;DHT22;7657;50.140;7.076;2022-08-19T06:09:08;20.00;99.90
15113;DHT22;7657;50.140;7.076;2022-08-19T06:11:38;20.10;99.90
15113;DHT22;7657;50.140;7.076;2022-08-19T06:14:07;20.10;99.90
15113;DHT22;7657;50.140;7.076;2022-08-19T06:16:35;20.10;99.90
15113;DHT22;7657;50.140;7.076;2022-08-19T06:19:06;20.00;99.90
15113;DHT22;7657;50.140;7.076;2022-08-19T06:21:35;20.00;99.90
15113;DHT22;7657;50.140;7.076;2022-08-19T06:24:04;20.00;99.90
15113;DHT22;7657;50.140;7.076;2022-08-19T06:26:33;20.00;99.90
15113;DHT22;7657;50.140;7.076;2022-08-19T06:29:01;20.20;99.90
15113;DHT22;7657;50.140;7.076;2022-08-19T06:31:29;20.30;99.90
15113;DHT22;7657;50.140;7.076;2022-08-19T06:33:59;20.30;99.90
15113;DHT22;7657;50.140;7.076;2022-08-19T06:36:30;20.40;99.90
15113;DHT22;7657;50.140;7.076;2022-08-19T06:39:00;20.30;99.90
15113;DHT22;7657;50.140;7.076;2022-08-19T06:41:28;20.30;99.90
15113;DHT22;7657;50.140;7.076;2022-08-19T06:43:57;20.20;99.90
15113;DHT22;7657;50.140;7.076;2022-08-19T06:46:24;20.30;99.90
15113;DHT22;7657;50.140;7.076;2022-08-19T06:48:52;20.30;99.90
15113;DHT22;7657;50.140;7.076;2022-08-19T06:51:21;20.30;99.90
15113;DHT22;7657;50.140;7.076;2022-08-19T06:53:51;20.20;99.90
15113;DHT22;7657;50.140;7.076;2022-08-19T06:56:20;20.30;99.90
15113;DHT22;7657;50.140;7.076;2022-08-19T06:58:47;20.20;99.90
15113;DHT22;7657;50.140;7.076;2022-08-19T07:01:18;20.30;99.90
15113;DHT22;7657;50.140;7.076;2022-08-19T07:03:46;20.40;99.90
15113;DHT22;7657;50.140;7.076;2022-08-19T07:06:16;20.40;99.90
15113;DHT22;7657;50.140;7.076;2022-08-19T07:08:43;20.50;99.90
15113;DHT22;7657;50.140;7.076;2022-08-19T07:11:13;20.40;99.90
15113;DHT22;7657;50.140;7.076;2022-08-19T07:13:41;20.40;99.90
15113;DHT22;7657;50.140;7.076;2022-08-19T07:16:11;20.50;99.90
15113;DHT22;7657;50.140;7.076;2022-08-19T07:18:39;20.50;99.90
15113;DHT22;7657;50.140;7.076;2022-08-19T07:21:09;20.60;99.90
15113;DHT22;7657;50.140;7.076;2022-08-19T07:23:37;20.60;99.90
15113;DHT22;7657;50.140;7.076;2022-08-19T07:26:06;20.70;99.90
15113;DHT22;7657;50.140;7.076;2022-08-19T07:28:33;20.80;99.90
15113;DHT22;7657;50.140;7.076;2022-08-19T07:31:05;20.80;99.90
15113;DHT22;7657;50.140;7.076;2022-08-19T07:33:32;20.90;99.90
15113;DHT22;7657;50.140;7.076;2022-08-19T07:36:03;20.90;99.90
15113;DHT22;7657;50.140;7.076;2022-08-19T07:38:30;20.90;99.90
15113;DHT22;7657;50.140;7.076;2022-08-19T07:40:57;21.00;99.90
15113;DHT22;7657;50.140;7.076;2022-08-19T07:43:24;21.10;99.90
15113;DHT22;7657;50.140;7.076;2022-08-19T07:45:53;21.10;99.90
15113;DHT22;7657;50.140;7.076;2022-08-19T07:48:21;21.00;99.90
15113;DHT22;7657;50.140;7.076;2022-08-19T07:50:51;21.10;99.90
15113;DHT22;7657;50.140;7.076;2022-08-19T07:53:19;21.10;99.90
15113;DHT22;7657;50.140;7.076;2022-08-19T07:55:46;21.10;99.90
15113;DHT22;7657;50.140;7.076;2022-08-19T07:58:15;21.10;99.90
15113;DHT22;7657;50.140;7.076;2022-08-19T08:00:44;21.20;99.90
15113;DHT22;7657;50.140;7.076;2022-08-19T08:03:13;21.30;99.90
15113;DHT22;7657;50.140;7.076;2022-08-19T08:05:40;21.30;99.90
15113;DHT22;7657;50.140;7.076;2022-08-19T08:08:27;21.30;99.90
15113;DHT22;7657;50.140;7.076;2022-08-19T08:11:12;21.30;99.90
15113;DHT22;7657;50.140;7.076;2022-08-19T08:13:39;21.30;99.90
15113;DHT22;7657;50.140;7.076;2022-08-19T08:16:06;21.40;99.90
15113;DHT22;7657;50.140;7.076;2022-08-19T08:18:34;21.50;99.90
15113;DHT22;7657;50.140;7.076;2022-08-19T08:21:07;21.50;99.90
15113;DHT22;7657;50.140;7.076;2022-08-19T08:23:35;21.60;99.90
15113;DHT22;7657;50.140;7.076;2022-08-19T08:26:02;21.60;99.90
15113;DHT22;7657;50.140;7.076;2022-08-19T08:28:30;21.60;99.90
15113;DHT22;7657;50.140;7.076;2022-08-19T08:30:57;21.60;99.90
15113;DHT22;7657;50.140;7.076;2022-08-19T08:33:27;21.70;99.90
15113;DHT22;7657;50.140;7.076;2022-08-19T08:35:55;21.70;99.90
15113;DHT22;7657;50.140;7.076;2022-08-19T08:38:23;21.70;99.90
15113;DHT22;7657;50.140;7.076;2022-08-19T08:40:55;21.70;99.90
15113;DHT22;7657;50.140;7.076;2022-08-19T08:43:34;21.80;99.90
15113;DHT22;7657;50.140;7.076;2022-08-19T08:46:09;21.80;99.90
15113;DHT22;7657;50.140;7.076;2022-08-19T08:48:39;21.90;99.90
15113;DHT22;7657;50.140;7.076;2022-08-19T08:51:11;22.00;99.90
15113;DHT22;7657;50.140;7.076;2022-08-19T08:53:40;22.10;99.90
15113;DHT22;7657;50.140;7.076;2022-08-19T08:56:11;22.10;99.90
15113;DHT22;7657;50.140;7.076;2022-08-19T08:58:47;22.10;99.90
15113;DHT22;7657;50.140;7.076;2022-08-19T09:01:16;22.10;99.90
15113;DHT22;7657;50.140;7.076;2022-08-19T09:03:45;22.20;99.90
15113;DHT22;7657;50.140;7.076;2022-08-19T09:06:17;22.10;99.90
15113;DHT22;7657;50.140;7.076;2022-08-19T09:08:52;22.10;99.90
15113;DHT22;7657;50.140;7.076;2022-08-19T09:11:34;22.10;99.90
15113;DHT22;7657;50.140;7.076;2022-08-19T09:14:08;22.20;99.90
15113;DHT22;7657;50.140;7.076;2022-08-19T09:16:42;22.30;99.90
15113;DHT22;7657;50.140;7.076;2022-08-19T09:19:09;22.30;99.90
15113;DHT22;7657;50.140;7.076;2022-08-19T09:21:36;22.20;99.90
15113;DHT22;7657;50.140;7.076;2022-08-19T09:24:04;22.20;99.90
15113;DHT22;7657;50.140;7.076;2022-08-19T09:26:33;22.20;99.90
15113;DHT22;7657;50.140;7.076;2022-08-19T09:29:01;22.20;99.90
15113;DHT22;7657;50.140;7.076;2022-08-19T09:31:31;22.30;99.90
15113;DHT22;7657;50.140;7.076;2022-08-19T09:33:58;22.40;99.90
15113;DHT22;7657;50.140;7.076;2022-08-19T09:36:27;22.50;99.90
15113;DHT22;7657;50.140;7.076;2022-08-19T09:38:58;22.60;99.90
15113;DHT22;7657;50.140;7.076;2022-08-19T09:41:26;22.60;99.90
15113;DHT22;7657;50.140;7.076;2022-08-19T09:43:58;22.70;99.90
15113;DHT22;7657;50.140;7.076;2022-08-19T09:46:27;22.70;99.90
15113;DHT22;7657;50.140;7.076;2022-08-19T09:48:54;22.80;99.90
15113;DHT22;7657;50.140;7.076;2022-08-19T09:51:24;22.70;99.90
15113;DHT22;7657;50.140;7.076;2022-08-19T09:53:54;22.80;99.90
15113;DHT22;7657;50.140;7.076;2022-08-19T09:56:22;22.80;99.90
15113;DHT22;7657;50.140;7.076;2022-08-19T09:58:49;22.80;99.90
15113;DHT22;7657;50.140;7.076;2022-08-19T10:01:20;22.80;99.90
15113;DHT22;7657;50.140;7.076;2022-08-19T10:03:49;22.90;99.90
15113;DHT22;7657;50.140;7.076;2022-08-19T10:06:17;22.90;99.90
15113;DHT22;7657;50.140;7.076;2022-08-19T10:08:45;22.90;99.90
15113;DHT22;7657;50.140;7.076;2022-08-19T10:11:13;23.00;99.90
15113;DHT22;7657;50.140;7.076;2022-08-19T10:13:43;23.00;99.90
15113;DHT22;7657;50.140;7.076;2022-08-19T10:16:12;23.10;99.90
15113;DHT22;7657;50.140;7.076;2022-08-19T10:18:41;23.10;99.90
15113;DHT22;7657;50.140;7.076;2022-08-19T10:21:11;23.20;99.90
15113;DHT22;7657;50.140;7.076;2022-08-19T10:23:41;23.20;99.90
15113;DHT22;7657;50.140;7.076;2022-08-19T10:26:11;23.30;99.90
15113;DHT22;7657;50.140;7.076;2022-08-19T10:28:38;23.30;99.90
15113;DHT22;7657;50.140;7.076;2022-08-19T10:31:07;23.20;99.90
15113;DHT22;7657;50.140;7.076;2022-08-19T10:33:35;23.20;99.90
15113;DHT22;7657;50.140;7.076;2022-08-19T10:36:06;23.20;99.90
15113;DHT22;7657;50.140;7.076;2022-08-19T10:38:33;23.30;99.90
15113;DHT22;7657;50.140;7.076;2022-08-19T10:41:07;23.30;99.90
15113;DHT22;7657;50.140;7.076;2022-08-19T10:43:34;23.40;99.90
15113;DHT22;7657;50.140;7.076;2022-08-19T10:46:04;23.50;99.90
15113;DHT22;7657;50.140;7.076;2022-08-19T10:48:31;23.70;99.90
15113;DHT22;7657;50.140;7.076;2022-08-19T10:50:59;23.80;99.90
15113;DHT22;7657;50.140;7.076;2022-08-19T10:53:45;23.90;99.90
15113;DHT22;7657;50.140;7.076;2022-08-19T10:56:12;24.10;99.90
15113;DHT22;7657;50.140;7.076;2022-08-19T10:58:57;24.10;99.90
15113;DHT22;7657;50.140;7.076;2022-08-19T11:01:25;24.10;99.90
15113;DHT22;7657;50.140;7.076;2022-08-19T11:03:51;24.10;99.90
15113;DHT22;7657;50.140;7.076;2022-08-19T11:06:19;24.00;99.90
15113;DHT22;7657;50.140;7.076;2022-08-19T11:08:48;24.00;99.90
15113;DHT22;7657;50.140;7.076;2022-08-19T11:11:15;24.00;99.90
15113;DHT22;7657;50.140;7.076;2022-08-19T11:13:42;24.00;99.90
15113;DHT22;7657;50.140;7.076;2022-08-19T11:16:11;24.10;99.90
15113;DHT22;7657;50.140;7.076;2022-08-19T11:18:41;24.20;99.90
15113;DHT22;7657;50.140;7.076;2022-08-19T11:21:12;24.30;99.90
15113;DHT22;7657;50.140;7.076;2022-08-19T11:23:39;24.40;99.90
15113;DHT22;7657;50.140;7.076;2022-08-19T11:26:08;24.40;99.90
15113;DHT22;7657;50.140;7.076;2022-08-19T11:28:35;24.30;99.90
15113;DHT22;7657;50.140;7.076;2022-08-19T11:31:02;24.40;99.90
15113;DHT22;7657;50.140;7.076;2022-08-19T11:33:29;24.40;99.90
15113;DHT22;7657;50.140;7.076;2022-08-19T11:35:58;24.30;99.90
15113;DHT22;7657;50.140;7.076;2022-08-19T11:38:26;24.40;99.90
15113;DHT22;7657;50.140;7.076;2022-08-19T11:40:58;24.50;99.90
15113;DHT22;7657;50.140;7.076;2022-08-19T11:43:27;24.60;99.90
15113;DHT22;7657;50.140;7.076;2022-08-19T11:45:54;24.60;99.90
15113;DHT22;7657;50.140;7.076;2022-08-19T11:48:22;24.60;99.90
15113;DHT22;7657;50.140;7.076;2022-08-19T11:50:49;24.60;99.90
15113;DHT22;7657;50.140;7.076;2022-08-19T11:53:16;24.60;99.90
15113;DHT22;7657;50.140;7.076;2022-08-19T11:55:44;24.60;99.90
15113;DHT22;7657;50.140;7.076;2022-08-19T11:58:11;24.60;99.90
15113;DHT22;7657;50.140;7.076;2022-08-19T12:00:41;24.60;99.90
15113;DHT22;7657;50.140;7.076;2022-08-19T12:03:08;24.70;99.90
15113;DHT22;7657;50.140;7.076;2022-08-19T12:05:36;24.70;99.90
15113;DHT22;7657;50.140;7.076;2022-08-19T12:08:03;24.80;99.90
15113;DHT22;7657;50.140;7.076;2022-08-19T12:10:31;24.90;99.90
15113;DHT22;7657;50.140;7.076;2022-08-19T12:12:58;24.80;99.90
15113;DHT22;7657;50.140;7.076;2022-08-19T12:15:26;24.90;99.90
15113;DHT22;7657;50.140;7.076;2022-08-19T12:17:57;24.90;99.90
15113;DHT22;7657;50.140;7.076;2022-08-19T12:20:24;24.90;99.90
15113;DHT22;7657;50.140;7.076;2022-08-19T12:22:52;24.80;99.90
15113;DHT22;7657;50.140;7.076;2022-08-19T12:25:19;24.70;99.90
15113;DHT22;7657;50.140;7.076;2022-08-19T12:27:48;24.70;99.90
15113;DHT22;7657;50.140;7.076;2022-08-19T12:30:15;24.70;99.90
15113;DHT22;7657;50.140;7.076;2022-08-19T12:32:42;24.70;99.90
15113;DHT22;7657;50.140;7.076;2022-08-19T12:35:11;24.80;99.90
15113;DHT22;7657;50.140;7.076;2022-08-19T12:37:38;25.00;99.90
15113;DHT22;7657;50.140;7.076;2022-08-19T12:40:11;25.10;99.90
15113;DHT22;7657;50.140;7.076;2022-08-19T12:42:38;25.30;99.90
15113;DHT22;7657;50.140;7.076;2022-08-19T12:45:08;25.30;99.90
15113;DHT22;7657;50.140;7.076;2022-08-19T12:47:36;25.30;99.90
15113;DHT22;7657;50.140;7.076;2022-08-19T12:50:03;25.30;99.90
15113;DHT22;7657;50.140;7.076;2022-08-19T12:52:36;25.30;99.90
15113;DHT22;7657;50.140;7.076;2022-08-19T12:55:05;25.40;99.90
15113;DHT22;7657;50.140;7.076;2022-08-19T12:57:33;25.40;99.90
15113;DHT22;7657;50.140;7.076;2022-08-19T13:00:04;25.30;99.90
15113;DHT22;7657;50.140;7.076;2022-08-19T13:02:34;25.30;99.90
15113;DHT22;7657;50.140;7.076;2022-08-19T13:05:02;25.30;99.90
15113;DHT22;7657;50.140;7.076;2022-08-19T13:07:29;25.30;99.90
15113;DHT22;7657;50.140;7.076;2022-08-19T13:09:57;25.30;99.90
15113;DHT22;7657;50.140;7.076;2022-08-19T13:12:24;25.20;99.90
15113;DHT22;7657;50.140;7.076;2022-08-19T13:14:52;25.20;99.90
15113;DHT22;7657;50.140;7.076;2022-08-19T13:17:19;25.50;99.90
15113;DHT22;7657;50.140;7.076;2022-08-19T13:19:46;25.70;99.90
15113;DHT22;7657;50.140;7.076;2022-08-19T13:22:13;25.60;99.90
15113;DHT22;7657;50.140;7.076;2022-08-19T13:24:40;25.70;99.90
15113;DHT22;7657;50.140;7.076;2022-08-19T13:27:08;26.00;99.90
15113;DHT22;7657;50.140;7.076;2022-08-19T13:29:35;26.20;99.90
15113;DHT22;7657;50.140;7.076;2022-08-19T13:32:19;26.30;99.90
15113;DHT22;7657;50.140;7.076;2022-08-19T13:35:05;26.50;99.90
15113;DHT22;7657;50.140;7.076;2022-08-19T13:37:32;26.80;99.90
15113;DHT22;7657;50.140;7.076;2022-08-19T13:40:09;27.00;99.90
15113;DHT22;7657;50.140;7.076;2022-08-19T13:42:40;27.20;99.90
15113;DHT22;7657;50.140;7.076;2022-08-19T13:45:07;27.40;99.90
15113;DHT22;7657;50.140;7.076;2022-08-19T13:47:35;27.40;99.90
15113;DHT22;7657;50.140;7.076;2022-08-19T13:50:10;27.50;99.90
15113;DHT22;7657;50.140;7.076;2022-08-19T13:52:37;27.80;99.90
15113;DHT22;7657;50.140;7.076;2022-08-19T13:55:05;28.00;99.90
15113;DHT22;7657;50.140;7.076;2022-08-19T13:57:33;28.20;99.90
15113;DHT22;7657;50.140;7.076;2022-08-19T14:00:03;28.30;97.90
15113;DHT22;7657;50.140;7.076;2022-08-19T14:02:30;28.50;97.40
15113;DHT22;7657;50.140;7.076;2022-08-19T14:04:58;28.70;97.10
15113;DHT22;7657;50.140;7.076;2022-08-19T14:07:25;29.00;96.10
15113;DHT22;7657;50.140;7.076;2022-08-19T14:09:52;29.10;94.70
15113;DHT22;7657;50.140;7.076;2022-08-19T14:12:20;29.20;94.00
15113;DHT22;7657;50.140;7.076;2022-08-19T14:14:47;29.20;93.70
15113;DHT22;7657;50.140;7.076;2022-08-19T14:17:16;29.10;92.20
15113;DHT22;7657;50.140;7.076;2022-08-19T14:19:43;29.10;91.80
15113;DHT22;7657;50.140;7.076;2022-08-19T14:22:10;28.90;92.40
15113;DHT22;7657;50.140;7.076;2022-08-19T14:24:37;28.90;91.60
15113;DHT22;7657;50.140;7.076;2022-08-19T14:27:05;28.90;91.10
15113;DHT22;7657;50.140;7.076;2022-08-19T14:29:32;28.80;93.00
15113;DHT22;7657;50.140;7.076;2022-08-19T14:31:59;28.80;93.00
15113;DHT22;7657;50.140;7.076;2022-08-19T14:34:28;29.10;93.30
15113;DHT22;7657;50.140;7.076;2022-08-19T14:36:57;29.00;92.60
15113;DHT22;7657;50.140;7.076;2022-08-19T14:39:24;29.30;92.70
15113;DHT22;7657;50.140;7.076;2022-08-19T14:41:51;29.40;92.50
15113;DHT22;7657;50.140;7.076;2022-08-19T14:44:18;29.70;93.10
15113;DHT22;7657;50.140;7.076;2022-08-19T14:46:45;29.80;92.30
15113;DHT22;7657;50.140;7.076;2022-08-19T14:49:12;30.10;91.90
15113;DHT22;7657;50.140;7.076;2022-08-19T14:51:40;30.30;91.20
15113;DHT22;7657;50.140;7.076;2022-08-19T14:54:07;30.00;91.10
15113;DHT22;7657;50.140;7.076;2022-08-19T14:56:34;30.40;91.10
15113;DHT22;7657;50.140;7.076;2022-08-19T14:59:01;31.10;90.90
15113;DHT22;7657;50.140;7.076;2022-08-19T15:01:29;31.10;88.20
15113;DHT22;7657;50.140;7.076;2022-08-19T15:03:56;31.40;87.30
15113;DHT22;7657;50.140;7.076;2022-08-19T15:06:24;31.70;85.20
15113;DHT22;7657;50.140;7.076;2022-08-19T15:08:52;31.60;83.90
15113;DHT22;7657;50.140;7.076;2022-08-19T15:11:22;31.80;84.00
15113;DHT22;7657;50.140;7.076;2022-08-19T15:13:49;32.10;83.00
15113;DHT22;7657;50.140;7.076;2022-08-19T15:16:17;32.30;82.80
15113;DHT22;7657;50.140;7.076;2022-08-19T15:18:46;32.10;82.00
15113;DHT22;7657;50.140;7.076;2022-08-19T15:21:15;31.80;83.40
15113;DHT22;7657;50.140;7.076;2022-08-19T15:23:43;31.70;84.10
15113;DHT22;7657;50.140;7.076;2022-08-19T15:26:12;31.40;84.90
15113;DHT22;7657;50.140;7.076;2022-08-19T15:28:38;31.20;84.90
15113;DHT22;7657;50.140;7.076;2022-08-19T15:31:05;31.00;85.30
15113;DHT22;7657;50.140;7.076;2022-08-19T15:33:33;30.70;86.20
15113;DHT22;7657;50.140;7.076;2022-08-19T15:36:02;30.20;87.60
15113;DHT22;7657;50.140;7.076;2022-08-19T15:38:31;30.10;88.00
15113;DHT22;7657;50.140;7.076;2022-08-19T15:40:59;29.90;85.90
15113;DHT22;7657;50.140;7.076;2022-08-19T15:43:49;29.70;86.20
15113;DHT22;7657;50.140;7.076;2022-08-19T15:46:17;29.70;88.40
15113;DHT22;7657;50.140;7.076;2022-08-19T15:48:44;29.70;88.30
15113;DHT22;7657;50.140;7.076;2022-08-19T15:51:11;29.50;89.80
15113;DHT22;7657;50.140;7.076;2022-08-19T15:53:39;29.30;91.50
15113;DHT22;7657;50.140;7.076;2022-08-19T15:56:06;29.00;91.80